createdAt,value
2022-10-12T00:00:18.174Z,4
2022-10-12T00:01:18.043Z,3
2022-10-12T00:02:18.055Z,4
2022-10-12T00:03:18.102Z,4
2022-10-12T00:04:18.026Z,4
2022-10-12T00:05:18.111Z,4
2022-10-12T00:06:18.116Z,4
2022-10-12T00:07:18.119Z,4
2022-10-12T00:08:18.124Z,4
2022-10-12T00:09:18.127Z,5
2022-10-12T00:10:18.041Z,4
2022-10-12T00:11:18.010Z,4
2022-10-12T00:12:18.011Z,4
2022-10-12T00:13:18.011Z,4
2022-10-12T00:14:18.091Z,4
2022-10-12T00:15:17.990Z,4
2022-10-12T00:16:18.076Z,4
2022-10-12T00:17:18.183Z,4
2022-10-12T00:18:18.084Z,4
2022-10-12T00:19:18.094Z,4
2022-10-12T00:20:18.113Z,4
2022-10-12T00:21:18.109Z,4
2022-10-12T00:22:18.030Z,4
2022-10-12T00:23:18.114Z,4
2022-10-12T00:24:18.047Z,4
2022-10-12T00:25:18.013Z,4
2022-10-12T00:26:18.039Z,5
2022-10-12T00:27:18.009Z,4
2022-10-12T00:28:18.042Z,4
2022-10-12T00:29:18.025Z,4
2022-10-12T00:30:18.043Z,4
2022-10-12T00:31:18.075Z,4
2022-10-12T00:32:18.077Z,4
2022-10-12T00:33:18.085Z,4
2022-10-12T00:34:18.093Z,4
2022-10-12T00:35:18.111Z,5
2022-10-12T00:36:18.016Z,4
2022-10-12T00:37:18.026Z,4
2022-10-12T00:38:18.011Z,4
2022-10-12T00:39:18.062Z,4
2022-10-12T00:40:18.043Z,4
2022-10-12T00:41:18.010Z,4
2022-10-12T00:42:18.084Z,4
2022-10-12T00:43:18.020Z,4
2022-10-12T00:44:18.013Z,4
2022-10-12T00:45:18.079Z,5
2022-10-12T00:46:18.035Z,4
2022-10-12T00:47:18.090Z,4
2022-10-12T00:48:18.082Z,4
2022-10-12T00:49:18.018Z,4
2022-10-12T00:50:18.006Z,4
2022-10-12T00:51:18.015Z,4
2022-10-12T00:52:18.051Z,4
2022-10-12T00:53:18.071Z,4
2022-10-12T00:54:18.015Z,4
2022-10-12T00:55:18.111Z,4
2022-10-12T00:56:18.130Z,4
2022-10-12T00:57:18.107Z,3
2022-10-12T00:58:18.028Z,4
2022-10-12T00:59:18.049Z,3
2022-10-12T01:00:18.011Z,4
2022-10-12T01:01:18.187Z,4
2022-10-12T01:02:18.019Z,4
2022-10-12T01:03:18.081Z,4
2022-10-12T01:04:18.120Z,3
2022-10-12T01:05:18.096Z,3
2022-10-12T01:06:18.106Z,3
2022-10-12T01:07:18.053Z,4
2022-10-12T01:08:18.116Z,4
2022-10-12T01:09:18.009Z,4
2022-10-12T01:10:18.026Z,4
2022-10-12T01:11:18.148Z,4
2022-10-12T01:12:18.042Z,4
2022-10-12T01:13:18.038Z,4
2022-10-12T01:14:18.050Z,4
2022-10-12T01:15:18.048Z,4
2022-10-12T01:16:18.078Z,4
2022-10-12T01:17:18.066Z,4
2022-10-12T01:18:18.116Z,4
2022-10-12T01:19:18.063Z,4
2022-10-12T01:20:18.011Z,4
2022-10-12T01:21:18.097Z,4
2022-10-12T01:22:18.000Z,4
2022-10-12T01:23:18.007Z,4
2022-10-12T01:24:18.113Z,4
2022-10-12T01:25:18.034Z,3
2022-10-12T01:26:18.136Z,4
2022-10-12T01:27:18.136Z,4
2022-10-12T01:28:18.080Z,4
2022-10-12T01:29:18.045Z,5
2022-10-12T01:30:18.004Z,4
2022-10-12T01:31:18.008Z,4
2022-10-12T01:32:18.201Z,4
2022-10-12T01:33:18.010Z,4
2022-10-12T01:34:18.082Z,4
2022-10-12T01:35:18.190Z,4
2022-10-12T01:36:18.092Z,5
2022-10-12T01:37:18.093Z,4
2022-10-12T01:44:18.057Z,4
2022-10-12T01:45:18.025Z,4
2022-10-12T01:46:18.356Z,4
2022-10-12T01:47:18.019Z,4
2022-10-12T01:48:18.024Z,4
2022-10-12T01:49:18.179Z,4
2022-10-12T01:50:18.110Z,4
2022-10-12T01:51:18.105Z,4
2022-10-12T01:52:18.086Z,4
2022-10-12T01:53:18.105Z,4
2022-10-12T01:54:18.105Z,4
2022-10-12T01:55:18.014Z,4
2022-10-12T01:56:18.125Z,4
2022-10-12T01:57:18.051Z,4
2022-10-12T01:58:18.094Z,4
2022-10-12T01:59:18.050Z,4
2022-10-12T02:00:18.035Z,4
2022-10-12T02:01:18.163Z,4
2022-10-12T02:02:18.062Z,4
2022-10-12T02:03:18.100Z,5
2022-10-12T02:04:18.075Z,4
2022-10-12T02:05:18.097Z,4
2022-10-12T02:06:18.193Z,4
2022-10-12T02:07:18.110Z,4
2022-10-12T02:08:18.118Z,4
2022-10-12T02:09:18.108Z,4
2022-10-12T02:10:18.136Z,4
2022-10-12T02:11:18.080Z,4
2022-10-12T02:12:18.030Z,4
2022-10-12T02:13:18.064Z,4
2022-10-12T02:14:18.151Z,4
2022-10-12T02:15:18.061Z,4
2022-10-12T02:16:18.018Z,4
2022-10-12T02:17:18.019Z,4
2022-10-12T02:18:18.008Z,4
2022-10-12T02:19:18.040Z,4
2022-10-12T02:20:18.035Z,4
2022-10-12T02:21:18.080Z,4
2022-10-12T02:22:18.023Z,3
2022-10-12T02:23:18.024Z,4
2022-10-12T02:24:18.009Z,4
2022-10-12T02:25:18.028Z,4
2022-10-12T02:26:18.024Z,4
2022-10-12T02:27:18.014Z,3
2022-10-12T02:28:18.100Z,4
2022-10-12T02:29:18.083Z,4
2022-10-12T02:30:21.118Z,4
2022-10-12T02:31:18.030Z,4
2022-10-12T02:32:18.016Z,4
2022-10-12T02:33:18.013Z,4
2022-10-12T02:34:18.043Z,4
2022-10-12T02:35:18.033Z,4
2022-10-12T02:36:18.081Z,4
2022-10-12T02:37:18.055Z,4
2022-10-12T02:38:18.022Z,4
2022-10-12T02:39:18.110Z,4
2022-10-12T02:40:18.121Z,4
2022-10-12T02:41:18.168Z,4
2022-10-12T02:42:18.139Z,4
2022-10-12T02:43:18.031Z,4
2022-10-12T02:44:18.133Z,4
2022-10-12T02:45:18.160Z,4
2022-10-12T02:46:18.059Z,4
2022-10-12T02:47:18.058Z,4
2022-10-12T02:48:18.018Z,4
2022-10-12T02:49:18.011Z,4
2022-10-12T02:50:18.102Z,4
2022-10-12T02:51:18.021Z,4
2022-10-12T02:52:18.087Z,4
2022-10-12T02:53:18.199Z,4
2022-10-12T02:54:18.124Z,4
2022-10-12T02:55:18.132Z,4
2022-10-12T02:56:18.128Z,3
2022-10-12T02:57:18.023Z,4
2022-10-12T02:58:18.040Z,3
2022-10-12T02:59:18.029Z,4
2022-10-12T03:00:18.186Z,4
2022-10-12T03:01:18.126Z,3
2022-10-12T03:02:18.025Z,4
2022-10-12T03:03:18.027Z,3
2022-10-12T03:04:18.015Z,3
2022-10-12T03:05:18.052Z,4
2022-10-12T03:06:18.018Z,4
2022-10-12T03:07:18.100Z,4
2022-10-12T03:08:18.070Z,4
2022-10-12T03:09:18.009Z,4
2022-10-12T03:10:18.025Z,3
2022-10-12T03:11:18.013Z,4
2022-10-12T03:12:18.021Z,4
2022-10-12T03:13:18.006Z,4
2022-10-12T03:14:18.020Z,4
2022-10-12T03:15:18.078Z,3
2022-10-12T03:16:18.072Z,4
2022-10-12T03:17:18.011Z,4
2022-10-12T03:18:18.078Z,4
2022-10-12T03:19:18.038Z,4
2022-10-12T03:20:18.028Z,4
2022-10-12T03:21:18.013Z,5
2022-10-12T03:22:18.014Z,3
2022-10-12T03:23:18.098Z,5
2022-10-12T03:24:18.106Z,4
2022-10-12T03:25:18.180Z,4
2022-10-12T03:26:18.113Z,4
2022-10-12T03:27:18.116Z,4
2022-10-12T03:28:18.086Z,4
2022-10-12T03:29:18.038Z,4
2022-10-12T03:30:18.033Z,4
2022-10-12T03:31:18.074Z,4
2022-10-12T03:32:18.151Z,4
2022-10-12T03:33:18.050Z,4
2022-10-12T03:34:18.014Z,4
2022-10-12T03:35:18.083Z,4
2022-10-12T03:36:18.098Z,4
2022-10-12T03:37:18.073Z,4
2022-10-12T03:38:18.100Z,4
2022-10-12T03:39:18.106Z,4
2022-10-12T03:40:18.119Z,4
2022-10-12T03:41:18.112Z,4
2022-10-12T03:42:18.113Z,4
2022-10-12T03:43:18.016Z,4
2022-10-12T03:44:18.207Z,4
2022-10-12T03:45:18.040Z,4
2022-10-12T03:46:18.132Z,4
2022-10-12T03:47:18.062Z,4
2022-10-12T03:48:18.056Z,4
2022-10-12T03:49:18.067Z,4
2022-10-12T03:50:18.076Z,4
2022-10-12T03:51:18.073Z,4
2022-10-12T03:52:18.091Z,4
2022-10-12T03:53:18.109Z,4
2022-10-12T03:54:18.088Z,4
2022-10-12T03:55:18.074Z,4
2022-10-12T03:56:18.032Z,4
2022-10-12T03:57:18.127Z,4
2022-10-12T03:58:18.015Z,4
2022-10-12T03:59:18.019Z,4
2022-10-12T04:00:18.089Z,4
2022-10-12T04:01:18.074Z,4
2022-10-12T04:02:18.158Z,4
2022-10-12T04:03:18.157Z,4
2022-10-12T04:04:18.070Z,4
2022-10-12T04:05:18.076Z,4
2022-10-12T04:06:18.076Z,4
2022-10-12T04:07:18.099Z,4
2022-10-12T04:08:18.109Z,4
2022-10-12T04:09:18.096Z,4
2022-10-12T04:10:18.122Z,4
2022-10-12T04:11:18.108Z,5
2022-10-12T04:12:18.045Z,4
2022-10-12T04:13:18.037Z,4
2022-10-12T04:14:18.135Z,4
2022-10-12T04:15:18.164Z,4
2022-10-12T04:16:18.038Z,4
2022-10-12T04:17:18.051Z,4
2022-10-12T04:18:18.151Z,4
2022-10-12T04:19:18.018Z,4
2022-10-12T04:20:18.081Z,4
2022-10-12T04:21:18.074Z,5
2022-10-12T04:22:18.077Z,4
2022-10-12T04:23:18.041Z,5
2022-10-12T04:24:18.104Z,4
2022-10-12T04:25:18.091Z,4
2022-10-12T04:26:18.077Z,4
2022-10-12T04:27:18.129Z,4
2022-10-12T04:28:18.147Z,5
2022-10-12T04:29:18.121Z,4
2022-10-12T04:30:18.156Z,5
2022-10-12T04:31:18.035Z,5
2022-10-12T04:32:18.051Z,4
2022-10-12T04:33:18.154Z,4
2022-10-12T04:34:18.170Z,4
2022-10-12T04:35:18.089Z,5
2022-10-12T04:36:18.175Z,4
2022-10-12T04:37:18.071Z,4
2022-10-12T04:38:18.065Z,4
2022-10-12T04:39:18.095Z,5
2022-10-12T04:40:18.124Z,5
2022-10-12T04:41:18.110Z,5
2022-10-12T04:42:18.101Z,5
2022-10-12T04:43:18.133Z,5
2022-10-12T04:44:18.012Z,4
2022-10-12T04:45:18.035Z,5
2022-10-12T04:46:18.035Z,4
2022-10-12T04:47:18.045Z,5
2022-10-12T04:48:18.012Z,5
2022-10-12T04:49:18.148Z,4
2022-10-12T04:50:18.175Z,4
2022-10-12T04:51:18.067Z,4
2022-10-12T04:52:18.095Z,4
2022-10-12T04:53:18.083Z,4
2022-10-12T04:54:18.100Z,4
2022-10-12T04:55:18.121Z,4
2022-10-12T04:56:18.105Z,4
2022-10-12T04:57:18.098Z,4
2022-10-12T04:58:18.119Z,4
2022-10-12T04:59:18.015Z,4
2022-10-12T05:00:18.038Z,4
2022-10-12T05:01:18.059Z,4
2022-10-12T05:02:18.032Z,4
2022-10-12T05:03:18.050Z,4
2022-10-12T05:04:18.144Z,4
2022-10-12T05:05:18.092Z,4
2022-10-12T05:06:18.064Z,4
2022-10-12T05:07:18.073Z,4
2022-10-12T05:08:18.078Z,4
2022-10-12T05:09:18.111Z,5
2022-10-12T05:10:18.098Z,5
2022-10-12T05:11:18.098Z,5
2022-10-12T05:12:18.121Z,7
2022-10-12T05:13:18.113Z,6
2022-10-12T05:14:18.124Z,7
2022-10-12T05:15:18.132Z,9
2022-10-12T05:16:18.015Z,7
2022-10-12T05:17:18.030Z,7
2022-10-12T05:18:18.146Z,9
2022-10-12T05:19:18.048Z,8
2022-10-12T05:20:18.190Z,9
2022-10-12T05:21:18.161Z,8
2022-10-12T05:22:18.069Z,7
2022-10-12T05:23:18.081Z,7
2022-10-12T05:24:18.080Z,6
2022-10-12T05:25:18.091Z,6
2022-10-12T05:26:18.008Z,6
2022-10-12T05:27:18.101Z,6
2022-10-12T05:28:18.195Z,6
2022-10-12T05:29:18.025Z,6
2022-10-12T05:30:18.144Z,6
2022-10-12T05:31:18.247Z,5
2022-10-12T05:32:18.231Z,5
2022-10-12T05:33:18.248Z,5
2022-10-12T05:34:18.250Z,5
2022-10-12T05:35:18.277Z,5
2022-10-12T05:36:18.352Z,5
2022-10-12T05:37:18.440Z,4
2022-10-12T05:38:18.022Z,5
2022-10-12T05:39:18.079Z,5
2022-10-12T05:40:18.134Z,4
2022-10-12T05:41:18.094Z,4
2022-10-12T05:42:18.018Z,4
2022-10-12T05:43:18.105Z,4
2022-10-12T05:44:18.116Z,4
2022-10-12T05:45:18.137Z,5
2022-10-12T05:46:18.129Z,4
2022-10-12T05:47:18.027Z,5
2022-10-12T05:48:18.036Z,5
2022-10-12T05:49:18.013Z,5
2022-10-12T05:50:18.068Z,4
2022-10-12T05:51:18.172Z,5
2022-10-12T05:52:18.124Z,5
2022-10-12T05:53:18.072Z,4
2022-10-12T05:54:18.086Z,4
2022-10-12T05:55:18.090Z,4
2022-10-12T05:56:18.007Z,4
2022-10-12T05:57:18.091Z,4
2022-10-12T05:58:18.101Z,4
2022-10-12T05:59:18.121Z,4
2022-10-12T06:00:18.135Z,4
2022-10-12T06:01:18.135Z,4
2022-10-12T06:02:18.112Z,4
2022-10-12T06:03:18.976Z,4
2022-10-12T06:04:18.064Z,4
2022-10-12T06:05:18.045Z,4
2022-10-12T06:06:18.063Z,4
2022-10-12T06:07:18.162Z,4
2022-10-12T06:08:18.085Z,4
2022-10-12T06:09:18.016Z,4
2022-10-12T06:10:18.098Z,4
2022-10-12T06:11:18.135Z,4
2022-10-12T06:12:18.022Z,4
2022-10-12T06:13:18.110Z,4
2022-10-12T06:14:18.209Z,4
2022-10-12T06:15:18.357Z,4
2022-10-12T06:16:18.020Z,5
2022-10-12T06:17:18.047Z,5
2022-10-12T06:18:18.026Z,5
2022-10-12T06:19:18.015Z,4
2022-10-12T06:20:18.038Z,4
2022-10-12T06:21:34.586Z,4
2022-10-12T06:22:18.065Z,4
2022-10-12T06:23:18.173Z,4
2022-10-12T06:24:18.027Z,4
2022-10-12T06:25:18.106Z,4
2022-10-12T06:26:18.093Z,4
2022-10-12T06:27:18.102Z,4
2022-10-12T06:28:18.135Z,4
2022-10-12T06:29:18.011Z,3
2022-10-12T06:30:18.072Z,4
2022-10-12T06:31:18.083Z,4
2022-10-12T06:32:18.012Z,4
2022-10-12T06:33:18.026Z,4
2022-10-12T06:34:18.072Z,4
2022-10-12T06:35:18.078Z,3
2022-10-12T06:36:18.063Z,4
2022-10-12T06:37:44.454Z,4
2022-10-12T06:38:18.172Z,3
2022-10-12T06:39:18.063Z,3
2022-10-12T06:40:18.107Z,4
2022-10-12T06:41:18.104Z,4
2022-10-12T06:42:18.099Z,4
2022-10-12T06:43:18.022Z,3
2022-10-12T06:44:18.021Z,4
2022-10-12T06:45:18.030Z,4
2022-10-12T06:46:18.061Z,4
2022-10-12T06:47:18.129Z,4
2022-10-12T06:48:18.892Z,4
2022-10-12T06:49:18.043Z,4
2022-10-12T06:50:18.034Z,4
2022-10-12T06:51:18.054Z,4
2022-10-12T06:52:18.061Z,4
2022-10-12T06:53:18.149Z,4
2022-10-12T06:54:18.077Z,3
2022-10-12T06:55:18.022Z,3
2022-10-12T06:56:18.021Z,4
2022-10-12T06:57:18.012Z,3
2022-10-12T06:58:18.008Z,4
2022-10-12T06:59:18.102Z,3
2022-10-12T07:00:18.123Z,4
2022-10-12T07:01:18.153Z,4
2022-10-12T07:02:18.125Z,4
2022-10-12T07:03:18.040Z,3
2022-10-12T07:04:18.032Z,4
2022-10-12T07:05:18.058Z,4
2022-10-12T07:06:18.043Z,4
2022-10-12T07:07:18.161Z,4
2022-10-12T07:08:18.070Z,4
2022-10-12T07:09:18.177Z,4
2022-10-12T07:10:18.113Z,3
2022-10-12T07:11:18.014Z,3
2022-10-12T07:12:18.090Z,4
2022-10-12T07:13:18.149Z,4
2022-10-12T07:14:18.098Z,4
2022-10-12T07:15:18.134Z,3
2022-10-12T07:16:18.111Z,4
2022-10-12T07:17:18.136Z,3
2022-10-12T07:18:18.140Z,4
2022-10-12T07:19:18.047Z,4
2022-10-12T07:20:18.062Z,4
2022-10-12T07:21:18.048Z,3
2022-10-12T07:22:18.047Z,4
2022-10-12T07:23:18.029Z,4
2022-10-12T07:24:18.082Z,4
2022-10-12T07:25:18.089Z,4
2022-10-12T07:26:18.084Z,4
2022-10-12T07:27:18.087Z,4
2022-10-12T07:28:18.142Z,4
2022-10-12T07:29:18.103Z,4
2022-10-12T07:30:18.124Z,4
2022-10-12T07:31:18.108Z,4
2022-10-12T07:32:18.124Z,4
2022-10-12T07:33:18.126Z,4
2022-10-12T07:34:18.020Z,4
2022-10-12T07:35:18.070Z,4
2022-10-12T07:36:21.786Z,4
2022-10-12T07:37:18.011Z,3
2022-10-12T07:38:18.176Z,3
2022-10-12T07:39:18.011Z,4
2022-10-12T07:40:18.192Z,3
2022-10-12T07:41:18.090Z,4
2022-10-12T07:42:19.529Z,4
2022-10-12T07:43:18.087Z,4
2022-10-12T07:44:18.126Z,3
2022-10-12T07:45:18.046Z,4
2022-10-12T07:46:18.095Z,3
2022-10-12T07:47:18.019Z,4
2022-10-12T07:48:18.122Z,4
2022-10-12T07:49:18.098Z,4
2022-10-12T07:50:18.035Z,4
2022-10-12T07:51:18.047Z,3
2022-10-12T07:52:18.047Z,3
2022-10-12T07:53:18.020Z,4
2022-10-12T07:54:21.720Z,3
2022-10-12T07:55:18.100Z,3
2022-10-12T07:56:18.088Z,3
2022-10-12T07:57:18.074Z,3
2022-10-12T07:58:18.081Z,4
2022-10-12T07:59:18.092Z,4
2022-10-12T08:00:18.125Z,3
2022-10-12T08:01:18.052Z,4
2022-10-12T08:02:18.126Z,3
2022-10-12T08:03:18.122Z,3
2022-10-12T08:04:18.067Z,3
2022-10-12T08:05:18.051Z,3
2022-10-12T08:06:18.042Z,4
2022-10-12T08:07:18.013Z,4
2022-10-12T08:08:18.058Z,3
2022-10-12T08:09:18.050Z,3
2022-10-12T08:10:18.086Z,3
2022-10-12T08:11:18.379Z,4
2022-10-12T08:12:18.395Z,4
2022-10-12T08:13:18.093Z,3
2022-10-12T08:14:18.081Z,4
2022-10-12T08:15:18.145Z,4
2022-10-12T08:16:18.174Z,4
2022-10-12T08:17:18.066Z,4
2022-10-12T08:18:18.014Z,4
2022-10-12T08:19:18.062Z,3
2022-10-12T08:20:18.127Z,3
2022-10-12T08:21:18.019Z,4
2022-10-12T08:22:18.021Z,4
2022-10-12T08:23:18.013Z,4
2022-10-12T08:24:18.022Z,3
2022-10-12T08:25:18.030Z,3
2022-10-12T08:26:18.008Z,4
2022-10-12T08:27:18.065Z,4
2022-10-12T08:28:18.033Z,4
2022-10-12T08:29:18.017Z,4
2022-10-12T08:30:18.030Z,4
2022-10-12T08:31:18.065Z,4
2022-10-12T08:32:18.013Z,4
2022-10-12T08:33:18.018Z,3
2022-10-12T08:34:18.060Z,3
2022-10-12T08:35:18.161Z,4
2022-10-12T08:36:18.029Z,4
2022-10-12T08:37:18.011Z,4
2022-10-12T08:38:18.012Z,4
2022-10-12T08:39:18.024Z,3
2022-10-12T08:40:18.070Z,3
2022-10-12T08:41:18.020Z,3
2022-10-12T08:42:18.077Z,3
2022-10-12T08:43:18.063Z,3
2022-10-12T08:44:18.004Z,3
2022-10-12T08:45:18.074Z,3
2022-10-12T08:46:18.045Z,4
2022-10-12T08:47:18.036Z,4
2022-10-12T08:48:18.006Z,4
2022-10-12T08:49:18.020Z,4
2022-10-12T08:50:18.127Z,3
2022-10-12T08:51:18.102Z,3
2022-10-12T08:52:18.022Z,3
2022-10-12T08:53:18.073Z,3
2022-10-12T08:54:18.032Z,3
2022-10-12T08:55:18.030Z,4
2022-10-12T08:56:18.060Z,3
2022-10-12T08:57:18.099Z,3
2022-10-12T08:58:18.088Z,3
2022-10-12T08:59:18.187Z,3
2022-10-12T09:00:18.207Z,3
2022-10-12T09:01:18.298Z,3
2022-10-12T09:02:18.102Z,4
2022-10-12T09:03:18.015Z,4
2022-10-12T09:04:18.031Z,3
2022-10-12T09:05:18.018Z,4
2022-10-12T09:06:18.063Z,3
2022-10-12T09:07:18.015Z,4
2022-10-12T09:08:18.041Z,3
2022-10-12T09:09:18.056Z,3
2022-10-12T09:10:18.097Z,4
2022-10-12T09:11:18.055Z,3
2022-10-12T09:12:18.107Z,3
2022-10-12T09:13:18.112Z,3
2022-10-12T09:14:18.061Z,3
2022-10-12T09:15:18.138Z,4
2022-10-12T09:16:18.191Z,3
2022-10-12T09:17:18.288Z,5
2022-10-12T09:18:18.208Z,4
2022-10-12T09:19:18.121Z,4
2022-10-12T09:20:18.245Z,3
2022-10-12T09:21:18.103Z,4
2022-10-12T09:22:18.348Z,3
2022-10-12T09:23:18.346Z,3
2022-10-12T09:24:18.242Z,3
2022-10-12T09:25:18.398Z,3
2022-10-12T09:26:18.080Z,4
2022-10-12T09:27:18.031Z,3
2022-10-12T09:28:18.147Z,4
2022-10-12T09:29:18.276Z,3
2022-10-12T09:30:18.511Z,4
2022-10-12T09:31:18.012Z,3
2022-10-12T09:32:18.032Z,3
2022-10-12T09:33:18.036Z,3
2022-10-12T09:34:19.397Z,3
2022-10-12T09:35:18.394Z,3
2022-10-12T09:36:18.023Z,3
2022-10-12T09:37:18.066Z,3
2022-10-12T09:38:18.105Z,3
2022-10-12T09:39:18.027Z,3
2022-10-12T09:40:18.037Z,3
2022-10-12T09:41:18.054Z,3
2022-10-12T09:42:18.013Z,3
2022-10-12T09:43:18.063Z,3
2022-10-12T09:44:18.067Z,3
2022-10-12T09:45:18.331Z,4
2022-10-12T09:46:18.087Z,3
2022-10-12T09:47:18.089Z,3
2022-10-12T09:48:18.189Z,3
2022-10-12T09:49:18.108Z,3
2022-10-12T09:50:18.022Z,4
2022-10-12T09:51:18.125Z,4
2022-10-12T09:52:18.139Z,4
2022-10-12T09:53:18.138Z,4
2022-10-12T09:54:18.013Z,4
2022-10-12T09:55:18.357Z,3
2022-10-12T09:56:18.066Z,3
2022-10-12T09:57:18.069Z,3
2022-10-12T09:58:18.016Z,3
2022-10-12T09:59:18.098Z,3
2022-10-12T10:00:18.855Z,3
2022-10-12T10:01:18.328Z,3
2022-10-12T10:02:18.318Z,3
2022-10-12T10:03:18.342Z,3
2022-10-12T10:04:18.020Z,3
2022-10-12T10:05:18.414Z,3
2022-10-12T10:06:18.135Z,3
2022-10-12T10:07:18.027Z,3
2022-10-12T10:08:18.066Z,3
2022-10-12T10:09:18.137Z,3
2022-10-12T10:10:18.504Z,3
2022-10-12T10:11:18.070Z,3
2022-10-12T10:12:18.015Z,3
2022-10-12T10:13:18.100Z,3
2022-10-12T10:14:18.173Z,4
2022-10-12T10:15:18.107Z,4
2022-10-12T10:16:18.095Z,3
2022-10-12T10:17:18.203Z,3
2022-10-12T10:18:18.087Z,3
2022-10-12T10:19:18.220Z,3
2022-10-12T10:20:18.711Z,3
2022-10-12T10:21:18.027Z,3
2022-10-12T10:22:18.026Z,3
2022-10-12T10:23:18.033Z,3
2022-10-12T10:24:18.140Z,3
2022-10-12T10:25:18.047Z,3
2022-10-12T10:27:18.070Z,3
2022-10-12T10:28:18.204Z,4
2022-10-12T10:29:18.078Z,3
2022-10-12T10:30:29.834Z,3
2022-10-12T10:31:18.091Z,3
2022-10-12T10:32:18.068Z,3
2022-10-12T10:33:18.093Z,4
2022-10-12T10:34:18.122Z,3
2022-10-12T10:35:18.034Z,3
2022-10-12T10:36:18.038Z,3
2022-10-12T10:37:18.120Z,3
2022-10-12T10:38:18.127Z,3
2022-10-12T10:39:18.071Z,3
2022-10-12T10:40:18.720Z,3
2022-10-12T10:41:18.153Z,3
2022-10-12T10:42:18.097Z,3
2022-10-12T10:43:18.060Z,3
2022-10-12T10:44:21.737Z,3
2022-10-12T10:45:18.493Z,3
2022-10-12T10:46:18.100Z,3
2022-10-12T10:47:18.092Z,3
2022-10-12T10:48:18.104Z,3
2022-10-12T10:49:18.020Z,2
2022-10-12T10:50:18.772Z,2
2022-10-12T10:51:18.129Z,3
2022-10-12T10:52:18.038Z,3
2022-10-12T10:53:18.132Z,3
2022-10-12T10:54:18.149Z,3
2022-10-12T10:55:18.150Z,2
2022-10-12T10:56:18.142Z,3
2022-10-12T10:57:18.045Z,3
2022-10-12T10:58:18.028Z,3
2022-10-12T10:59:18.064Z,3
2022-10-12T11:01:18.082Z,3
2022-10-12T11:02:18.035Z,3
2022-10-12T11:03:18.201Z,2
2022-10-12T11:04:18.094Z,3
2022-10-12T11:05:18.579Z,3
2022-10-12T11:06:18.106Z,2
2022-10-12T11:07:18.134Z,2
2022-10-12T11:08:18.126Z,3
2022-10-12T11:09:18.137Z,3
2022-10-12T11:10:18.152Z,3
2022-10-12T11:11:18.147Z,2
2022-10-12T11:12:18.186Z,2
2022-10-12T11:13:18.086Z,2
2022-10-12T11:14:18.030Z,2
2022-10-12T11:15:18.074Z,2
2022-10-12T11:16:18.029Z,2
2022-10-12T11:17:18.110Z,2
2022-10-12T11:18:18.093Z,2
2022-10-12T11:19:18.188Z,2
2022-10-12T11:20:19.885Z,2
2022-10-12T11:21:18.142Z,3
2022-10-12T11:22:18.022Z,2
2022-10-12T11:23:18.133Z,2
2022-10-12T11:24:18.132Z,3
2022-10-12T11:25:18.047Z,2
2022-10-12T11:26:18.082Z,2
2022-10-12T11:27:18.149Z,2
2022-10-12T11:28:18.090Z,3
2022-10-12T11:29:18.059Z,2
2022-10-12T11:30:18.097Z,2
2022-10-12T11:31:18.033Z,3
2022-10-12T11:32:22.584Z,2
2022-10-12T11:33:18.081Z,2
2022-10-12T11:34:18.089Z,2
2022-10-12T11:35:18.117Z,2
2022-10-12T11:36:18.107Z,2
2022-10-12T11:37:19.914Z,3
2022-10-12T11:38:18.117Z,2
2022-10-12T11:39:22.618Z,2
2022-10-12T11:40:21.084Z,2
2022-10-12T11:41:34.829Z,3
2022-10-12T11:42:22.458Z,2
2022-10-12T11:43:18.032Z,2
2022-10-12T11:44:18.064Z,2
2022-10-12T11:45:18.067Z,3
2022-10-12T11:46:18.068Z,2
2022-10-12T11:47:18.078Z,2
2022-10-12T11:48:18.179Z,3
2022-10-12T11:49:18.193Z,2
2022-10-12T11:50:18.207Z,2
2022-10-12T11:51:18.112Z,2
2022-10-12T11:52:18.137Z,2
2022-10-12T11:53:18.207Z,2
2022-10-12T11:54:18.126Z,2
2022-10-12T11:55:18.238Z,2
2022-10-12T11:56:18.165Z,2
2022-10-12T11:57:18.227Z,3
2022-10-12T11:58:18.907Z,2
2022-10-12T11:59:18.287Z,2
2022-10-12T12:00:18.362Z,2
2022-10-12T12:01:18.330Z,2
2022-10-12T12:02:18.361Z,2
2022-10-12T12:03:18.147Z,2
2022-10-12T12:04:40.580Z,2
2022-10-12T12:05:18.123Z,2
2022-10-12T12:06:18.416Z,2
2022-10-12T12:07:18.056Z,2
2022-10-12T12:08:18.116Z,3
2022-10-12T12:09:18.031Z,3
2022-10-12T12:10:18.151Z,3
2022-10-12T12:11:18.160Z,3
2022-10-12T12:12:18.142Z,3
2022-10-12T12:13:18.155Z,3
2022-10-12T12:14:18.160Z,2
2022-10-12T12:15:18.087Z,2
2022-10-12T12:16:18.078Z,2
2022-10-12T12:17:18.175Z,2
2022-10-12T12:18:18.043Z,2
2022-10-12T12:19:18.098Z,2
2022-10-12T12:20:18.116Z,2
2022-10-12T12:21:18.103Z,2
2022-10-12T12:22:18.022Z,2
2022-10-12T12:23:18.138Z,2
2022-10-12T12:24:18.126Z,2
2022-10-12T12:25:18.144Z,2
2022-10-12T12:26:18.144Z,2
2022-10-12T12:27:18.175Z,2
2022-10-12T12:28:18.224Z,2
2022-10-12T12:29:18.144Z,2
2022-10-12T12:30:18.094Z,2
2022-10-12T12:31:18.105Z,2
2022-10-12T12:32:18.045Z,2
2022-10-12T12:33:18.072Z,2
2022-10-12T12:34:18.079Z,2
2022-10-12T12:35:18.125Z,2
2022-10-12T12:36:18.096Z,2
2022-10-12T12:37:18.228Z,2
2022-10-12T12:38:18.125Z,2
2022-10-12T12:39:18.119Z,2
2022-10-12T12:40:18.162Z,2
2022-10-12T12:41:18.137Z,2
2022-10-12T12:42:18.142Z,2
2022-10-12T12:43:18.169Z,2
2022-10-12T12:44:18.089Z,2
2022-10-12T12:45:18.161Z,2
2022-10-12T12:46:18.058Z,2
2022-10-12T12:47:43.875Z,2
2022-10-12T12:48:20.619Z,2
2022-10-12T12:49:18.062Z,2
2022-10-12T12:50:18.107Z,3
2022-10-12T12:51:18.084Z,2
2022-10-12T12:52:18.100Z,2
2022-10-12T12:53:18.036Z,2
2022-10-12T12:54:18.062Z,2
2022-10-12T12:55:18.059Z,2
2022-10-12T12:56:18.041Z,2
2022-10-12T12:57:18.044Z,2
2022-10-12T12:58:18.043Z,2
2022-10-12T12:59:18.096Z,2
2022-10-12T13:00:18.327Z,2
2022-10-12T13:01:18.280Z,2
2022-10-12T13:02:18.090Z,2
2022-10-12T13:03:18.052Z,2
2022-10-12T13:04:18.045Z,2
2022-10-12T13:05:18.197Z,2
2022-10-12T13:06:18.191Z,2
2022-10-12T13:07:18.224Z,2
2022-10-12T13:08:18.211Z,2
2022-10-12T13:09:18.129Z,2
2022-10-12T13:10:18.339Z,2
2022-10-12T13:11:18.161Z,3
2022-10-12T13:12:18.236Z,3
2022-10-12T13:13:18.359Z,2
2022-10-12T13:14:18.380Z,2
2022-10-12T13:15:18.372Z,2
2022-10-12T13:16:28.675Z,2
2022-10-12T13:17:34.177Z,3
2022-10-12T13:18:34.497Z,2
2022-10-12T13:19:22.003Z,2
2022-10-12T13:20:18.107Z,2
2022-10-12T13:21:18.052Z,2
2022-10-12T13:22:18.091Z,2
2022-10-12T13:23:18.211Z,2
2022-10-12T13:24:18.104Z,2
2022-10-12T13:25:18.151Z,3
2022-10-12T13:26:18.132Z,2
2022-10-12T13:27:18.093Z,3
2022-10-12T13:28:18.178Z,2
2022-10-12T13:29:18.136Z,2
2022-10-12T13:30:18.169Z,2
2022-10-12T13:31:18.189Z,2
2022-10-12T13:32:18.076Z,2
2022-10-12T13:33:18.166Z,3
2022-10-12T13:34:18.043Z,2
2022-10-12T13:35:18.113Z,3
2022-10-12T13:36:18.078Z,2
2022-10-12T13:37:18.069Z,2
2022-10-12T13:38:18.097Z,2
2022-10-12T13:39:18.138Z,2
2022-10-12T13:40:18.073Z,2
2022-10-12T13:41:18.126Z,2
2022-10-12T13:42:18.060Z,3
2022-10-12T13:43:18.051Z,2
2022-10-12T13:44:18.086Z,2
2022-10-12T13:45:18.073Z,2
2022-10-12T13:46:18.114Z,2
2022-10-12T13:47:18.164Z,2
2022-10-12T13:48:34.011Z,2
2022-10-12T13:49:18.049Z,2
2022-10-12T13:50:18.093Z,3
2022-10-12T13:51:18.078Z,2
2022-10-12T13:52:18.094Z,2
2022-10-12T13:53:18.102Z,3
2022-10-12T13:54:18.203Z,3
2022-10-12T13:55:18.234Z,3
2022-10-12T13:56:18.127Z,3
2022-10-12T13:57:18.124Z,3
2022-10-12T13:58:18.141Z,3
2022-10-12T13:59:18.936Z,3
2022-10-12T14:00:18.162Z,3
2022-10-12T14:01:18.208Z,2
2022-10-12T14:02:18.165Z,3
2022-10-12T14:03:18.065Z,3
2022-10-12T14:04:18.070Z,3
2022-10-12T14:05:18.110Z,3
2022-10-12T14:06:18.131Z,3
2022-10-12T14:07:18.106Z,3
2022-10-12T14:08:18.075Z,3
2022-10-12T14:09:18.113Z,3
2022-10-12T14:10:18.145Z,3
2022-10-12T14:11:18.069Z,3
2022-10-12T14:12:20.666Z,3
2022-10-12T14:13:18.070Z,3
2022-10-12T14:14:18.061Z,3
2022-10-12T14:15:18.090Z,3
2022-10-12T14:16:18.090Z,3
2022-10-12T14:17:18.172Z,3
2022-10-12T14:18:18.155Z,4
2022-10-12T14:19:18.070Z,3
2022-10-12T14:20:18.207Z,3
2022-10-12T14:21:18.062Z,3
2022-10-12T14:22:18.088Z,3
2022-10-12T14:23:18.060Z,3
2022-10-12T14:24:18.099Z,3
2022-10-12T14:25:18.140Z,3
2022-10-12T14:26:18.150Z,3
2022-10-12T14:27:18.065Z,3
2022-10-12T14:28:18.090Z,3
2022-10-12T14:29:18.068Z,3
2022-10-12T14:30:18.101Z,3
2022-10-12T14:31:18.133Z,3
2022-10-12T14:32:18.071Z,2
2022-10-12T14:33:18.113Z,3
2022-10-12T14:34:18.156Z,3
2022-10-12T14:35:18.080Z,2
2022-10-12T14:36:18.189Z,2
2022-10-12T14:37:18.124Z,3
2022-10-12T14:38:18.132Z,2
2022-10-12T14:39:18.082Z,2
2022-10-12T14:40:18.101Z,2
2022-10-12T14:41:18.143Z,2
2022-10-12T14:42:18.076Z,2
2022-10-12T14:43:18.076Z,2
2022-10-12T14:44:18.065Z,2
2022-10-12T14:45:18.094Z,3
2022-10-12T14:46:18.098Z,3
2022-10-12T14:47:18.095Z,2
2022-10-12T14:48:18.141Z,2
2022-10-12T14:49:18.126Z,3
2022-10-12T14:50:18.104Z,2
2022-10-12T14:51:18.591Z,2
2022-10-12T14:52:18.093Z,2
2022-10-12T14:53:18.090Z,2
2022-10-12T14:54:18.070Z,3
2022-10-12T14:55:18.109Z,2